Hlavní strana
METAR-TAF:

METAR-TAF

Letiště :

Neiva, Kolumbie

zeměpisná šířka: 02-58N, zeměpisná délka: 075-18W, výška: 439 m

Aktuální stav počasí

Zpráva byla vytvořena před 1 hodinou a 8 minutami, v 01:00 UTC
Bezvětří
Teplota 29°C
Vlhkost vzduchu 66%
Tlak 1010 hPa
Viditelnost 10 km a více

METAR: SKNV 260100Z 00000KT 9999 NSC 29/22 A2982

Čas: 21:08 (02:08 UTC)


TAF: chybějící

Stav a předpovědi počasí z více než 4 000 letišť (zprávy METAR a TAF).

Červené a žluté tečky na mapě představují dostupné meteorologické stanice.

Když kurzor umístíte na tečku, zobrazí se název stanice.

Pak kliknutím zobrazíte stav a předpověď počasí.

Chcete-li změnit mapu, kliknutím na zelené tlačítko se znaménkem +mapu přiblížíte, kliknutím na zelené tlačítko se znaménkem – mapu oddálíte a kliknutím na zelené šipky přejdete na sousední mapy.


METAR-TAF: